Thurman, Indiana
Current Conditions -  °F | °C
As of 10:54 PM on Wednesday 17 Dec 2014 (Local Time) from KFWA Reporting Station
Overcast Overcast  
Wind Chill: 16°   Ceiling: 2700
Heat Index: 27°   Visibility: 10mi
Dew Point: 21°   Wind: 13mph
Humidity: 78%   Direction: 270°W
Pressure: 30.24"   Gusts: NA
Location:  41.0925°N, 84.9712°W
Report Text: KFWA 180354Z 27011KT 10SM OVC027 M03/M06 A3024 RMK AO2 SLP251 T10281061
Loading
Personal Weather Stations






























Interactive Weather Map New forecast layout! Learn more

10-Day Weather Forecast

Advertisements
Track Severe Weather on mobile